Time;durP1;ratioP1;P1;durP2;ratioP2;P2;SDS_P1;SDS_P2;PMS_P1;PMS_P2;Temp;Humidity;BMP_temperature;BMP_pressure;BME280_temperature;BME280_humidity;BME280_pressure;Samples;Min_cycle;Max_cycle;Signal;HPM_P1;HPM_P2
2022/08/05 00:00:14;;;;;;;21.65;19.37;;;;;;;20.61;81.34;100449.34;1799757;80;21174;-56
2022/08/05 00:03:19;;;;;;;21.10;18.02;;;;;;;20.59;81.41;100454.31;1799471;79;21193;-56
2022/08/05 00:06:26;;;;;;;22.65;19.32;;;;;;;20.61;81.50;100452.69;1799483;80;21237;-56
2022/08/05 00:09:33;;;;;;;20.80;18.62;;;;;;;20.63;81.58;100451.34;1796381;80;21197;-56
2022/08/05 00:12:41;;;;;;;22.15;19.85;;;;;;;20.61;81.57;100448.52;1804649;79;21859;-56
2022/08/05 00:15:43;;;;;;;23.22;19.52;;;;;;;20.62;81.61;100447.41;1799591;79;21182;-57
2022/08/05 00:18:39;;;;;;;22.35;19.62;;;;;;;20.61;81.71;100445.73;1793787;79;21431;-56
2022/08/05 00:21:46;;;;;;;22.45;19.07;;;;;;;20.62;81.80;100443.24;1799277;79;21173;-56
2022/08/05 00:24:52;;;;;;;20.82;18.25;;;;;;;20.63;81.79;100450.48;1799467;80;21185;-57
2022/08/05 00:27:59;;;;;;;23.07;19.20;;;;;;;20.64;81.88;100443.29;1799405;80;21169;-56
2022/08/05 00:31:07;;;;;;;21.42;18.48;;;;;;;20.67;81.97;100453.97;1783812;80;21201;-57
2022/08/05 00:34:12;;;;;;;19.60;17.55;;;;;;;20.66;81.90;100446.69;1802859;79;21177;-57
2022/08/05 00:37:20;;;;;;;21.12;17.20;;;;;;;20.63;81.88;100441.61;1810759;79;21263;-56
2022/08/05 00:40:28;;;;;;;23.27;19.30;;;;;;;20.61;81.83;100440.17;1790324;79;21244;-56
2022/08/05 00:43:35;;;;;;;20.90;17.45;;;;;;;20.61;81.90;100441.56;1803094;79;21201;-56
2022/08/05 00:46:43;;;;;;;19.77;17.60;;;;;;;20.58;81.89;100441.47;1799561;79;21181;-57
2022/08/05 00:49:50;;;;;;;20.25;18.17;;;;;;;20.53;81.90;100448.30;1799438;79;21224;-57
2022/08/05 00:52:50;;;;;;;21.90;18.12;;;;;;;20.52;82.07;100457.73;1799696;79;21205;-57
2022/08/05 00:55:50;;;;;;;20.45;17.40;;;;;;;20.55;82.22;100453.65;1799769;79;21166;-57
2022/08/05 00:58:57;;;;;;;20.00;17.02;;;;;;;20.56;82.29;100460.36;1799667;80;21229;-54
2022/08/05 01:02:06;;;;;;;19.85;17.67;;;;;;;20.56;82.33;100456.72;1797518;79;21749;-56
2022/08/05 01:05:15;;;;;;;20.32;16.97;;;;;;;20.56;82.34;100458.11;1804688;79;21181;-56
2022/08/05 01:08:21;;;;;;;20.40;18.27;;;;;;;20.51;82.26;100460.76;1804652;79;21212;-57
2022/08/05 01:11:39;;;;;;;20.57;16.30;;;;;;;20.47;82.26;100453.99;1789842;79;21233;-57
2022/08/05 01:14:57;;;;;;;20.48;15.83;;;;;;;20.44;82.24;100452.52;1804742;79;21177;-57
2022/08/05 01:18:07;;;;;;;19.70;16.82;;;;;;;20.36;82.11;100461.20;1803799;79;21326;-55
2022/08/05 01:21:34;;;;;;;18.12;16.25;;;;;;;20.29;82.09;100466.03;1804598;79;21181;-56
2022/08/05 01:25:12;;;;;;;21.00;15.90;;;;;;;20.25;82.19;100462.01;1782455;79;21208;-56
2022/08/05 01:28:49;;;;;;;18.67;14.87;;;;;;;20.18;82.13;100464.59;1809779;79;21315;-56
2022/08/05 01:32:00;;;;;;;16.97;15.03;;;;;;;20.12;82.25;100476.06;1790887;80;21793;-56
2022/08/05 01:35:13;;;;;;;16.55;14.18;;;;;;;20.09;82.45;100470.15;1736381;82;21190;-56
2022/08/05 01:38:21;;;;;;;17.35;13.93;;;;;;;20.05;82.36;100470.30;1803549;79;21279;-56
2022/08/05 01:41:29;;;;;;;15.53;13.93;;;;;;;19.96;82.30;100472.58;1799575;79;21217;-56
2022/08/05 01:44:36;;;;;;;17.48;14.15;;;;;;;19.93;82.44;100486.08;1799656;80;21173;-55
2022/08/05 01:47:44;;;;;;;14.70;13.20;;;;;;;19.91;82.49;100468.78;1799674;79;21742;-56
2022/08/05 01:50:53;;;;;;;15.98;13.88;;;;;;;19.86;82.49;100475.58;1799651;80;21149;-56
2022/08/05 01:54:01;;;;;;;14.93;13.43;;;;;;;19.83;82.63;100482.47;1799999;78;21185;-56
2022/08/05 01:57:09;;;;;;;15.75;14.15;;;;;;;19.82;82.69;100477.97;1787478;79;21193;-56
2022/08/05 02:00:18;;;;;;;15.10;12.93;;;;;;;19.81;82.74;100483.23;1784552;79;21181;-56
2022/08/05 02:03:40;;;;;;;16.37;13.88;;;;;;;19.81;82.84;100475.42;1787327;79;21315;-56
2022/08/05 02:06:47;;;;;;;16.30;14.20;;;;;;;19.78;82.79;100467.56;1781967;79;21256;-57
2022/08/05 02:09:55;;;;;;;18.48;13.62;;;;;;;19.75;82.73;100473.06;1775320;79;21188;-56
2022/08/05 02:13:05;;;;;;;15.40;13.80;;;;;;;19.70;82.72;100471.52;1761332;79;21718;-56
2022/08/05 02:16:33;;;;;;;14.68;13.15;;;;;;;19.65;82.71;100472.75;1766485;80;21157;-56
2022/08/05 02:19:44;;;;;;;15.23;13.62;;;;;;;19.61;82.77;100471.53;1767089;80;21169;-56
2022/08/05 02:22:52;;;;;;;15.20;13.60;;;;;;;19.58;82.86;100470.61;1786912;79;21228;-56
2022/08/05 02:25:58;;;;;;;15.48;13.45;;;;;;;19.59;83.01;100456.16;1769724;80;21180;-56
2022/08/05 02:29:06;;;;;;;16.70;14.40;;;;;;;19.60;83.09;100460.66;1787282;80;21229;-56
2022/08/05 02:32:14;;;;;;;16.65;14.83;;;;;;;19.60;83.03;100462.05;1787928;79;21208;-56
2022/08/05 02:35:25;;;;;;;15.65;13.90;;;;;;;19.59;83.09;100461.72;1769468;79;21316;-55
2022/08/05 02:38:36;;;;;;;15.40;13.32;;;;;;;19.63;83.21;100464.35;1779861;80;21777;-56
2022/08/05 02:41:43;;;;;;;17.57;14.78;;;;;;;19.65;83.22;100459.39;1763511;79;21217;-56
2022/08/05 02:44:50;;;;;;;18.10;14.53;;;;;;;19.66;83.29;100455.02;1768704;80;21178;-57
2022/08/05 02:47:58;;;;;;;15.93;13.25;;;;;;;19.69;83.34;100452.30;1736219;81;21218;-56
2022/08/05 02:51:07;;;;;;;16.37;13.28;;;;;;;19.70;83.33;100457.63;1769023;80;21699;-57
2022/08/05 02:54:13;;;;;;;14.93;12.47;;;;;;;19.72;83.35;100454.61;1742595;80;21185;-56
2022/08/05 02:57:22;;;;;;;15.38;13.78;;;;;;;19.73;83.35;100451.60;1704135;83;21235;-56
2022/08/05 03:00:30;;;;;;;15.68;13.55;;;;;;;19.74;83.37;100456.06;1713026;82;21233;-56
2022/08/05 03:03:36;;;;;;;18.10;14.07;;;;;;;19.75;83.38;100456.92;1734153;80;21236;-56
2022/08/05 03:06:44;;;;;;;16.17;13.60;;;;;;;19.76;83.38;100453.05;1733649;82;21169;-56
2022/08/05 03:09:52;;;;;;;18.15;14.35;;;;;;;19.77;83.42;100458.41;1787866;79;21189;-56
2022/08/05 03:13:01;;;;;;;17.32;13.85;;;;;;;19.77;83.42;100462.57;1787080;78;21217;-55
2022/08/05 03:16:08;;;;;;;18.17;15.48;;;;;;;19.78;83.44;100464.78;1782718;79;21205;-55
2022/08/05 03:19:15;;;;;;;20.95;17.02;;;;;;;19.79;83.48;100465.11;1793656;79;21197;-57
2022/08/05 03:22:25;;;;;;;25.72;18.60;;;;;;;19.79;83.52;100466.50;1768648;80;21272;-56
2022/08/05 03:25:31;;;;;;;21.70;17.45;;;;;;;19.81;83.52;100469.88;1770407;79;21225;-56
2022/08/05 03:28:39;;;;;;;19.67;16.62;;;;;;;19.79;83.51;100477.61;1789649;79;21216;-55
2022/08/05 03:31:45;;;;;;;18.00;16.02;;;;;;;19.80;83.54;100471.82;1770490;79;21173;-56
2022/08/05 03:34:52;;;;;;;19.30;14.75;;;;;;;19.83;83.58;100470.50;1772702;79;21154;-57
2022/08/05 03:37:58;;;;;;;16.65;14.95;;;;;;;19.86;83.62;100481.14;1759073;80;21240;-56
2022/08/05 03:41:03;;;;;;;16.82;14.38;;;;;;;19.88;83.64;100488.71;1768537;80;21221;-57
2022/08/05 03:44:11;;;;;;;18.92;15.83;;;;;;;19.89;83.68;100480.14;1770501;79;21304;-58
2022/08/05 03:47:11;;;;;;;18.98;16.50;;;;;;;19.93;83.78;100479.96;1774422;79;21750;-55
2022/08/05 03:50:05;;;;;;;18.20;15.30;;;;;;;19.98;83.92;100474.55;1768396;80;21205;-56
2022/08/05 03:53:04;;;;;;;21.20;15.93;;;;;;;20.03;83.99;100482.19;1769935;80;21221;-56
2022/08/05 03:56:19;;;;;;;18.37;15.50;;;;;;;20.08;83.97;100483.19;1770659;80;21178;-57
2022/08/05 03:59:40;;;;;;;20.65;15.48;;;;;;;20.14;84.06;100481.42;1768451;80;21170;-56
2022/08/05 04:02:50;;;;;;;18.45;16.00;;;;;;;20.18;84.09;100482.66;1770100;79;21221;-57
2022/08/05 04:05:59;;;;;;;15.85;14.18;;;;;;;20.20;84.13;100486.06;1768450;80;21327;-56
2022/08/05 04:09:09;;;;;;;20.37;15.13;;;;;;;20.26;84.21;100490.67;1768497;80;21316;-57
2022/08/05 04:12:16;;;;;;;19.77;14.93;;;;;;;20.32;84.26;100489.72;1742968;80;21199;-56
2022/08/05 04:15:23;;;;;;;17.65;15.50;;;;;;;20.35;84.27;100487.32;1741993;80;21274;-56
2022/08/05 04:18:31;;;;;;;18.17;15.88;;;;;;;20.41;84.33;100489.15;1738684;82;21416;-55
2022/08/05 04:21:39;;;;;;;16.20;14.33;;;;;;;20.44;84.29;100483.64;1738350;82;21207;-56
2022/08/05 04:24:51;;;;;;;19.15;16.62;;;;;;;20.47;84.37;100487.37;1751577;80;21231;-56
2022/08/05 04:27:58;;;;;;;16.97;15.15;;;;;;;20.50;84.39;100485.50;1738597;81;21234;-56
2022/08/05 04:31:07;;;;;;;17.77;15.25;;;;;;;20.56;84.59;100488.72;1749339;81;21711;-58
2022/08/05 04:34:13;;;;;;;18.52;15.30;;;;;;;20.61;84.60;100491.63;1770022;79;21201;-55
2022/08/05 04:37:20;;;;;;;17.52;14.58;;;;;;;20.64;84.55;100483.63;1768812;80;21754;-56
2022/08/05 04:40:27;;;;;;;18.02;14.65;;;;;;;20.66;84.43;100489.81;1768080;80;21189;-58
2022/08/05 04:43:33;;;;;;;16.48;14.68;;;;;;;20.67;84.35;100492.06;1754444;80;21211;-56
2022/08/05 04:46:40;;;;;;;20.65;14.87;;;;;;;20.76;84.51;100498.97;1737350;81;21215;-56
2022/08/05 04:49:47;;;;;;;16.30;14.53;;;;;;;20.86;84.51;100499.77;1737529;81;21226;-57
2022/08/05 04:52:56;;;;;;;16.87;15.18;;;;;;;20.92;84.46;100494.09;1738031;82;21286;-56
2022/08/05 04:56:02;;;;;;;16.48;14.75;;;;;;;21.00;84.50;100493.78;1749667;81;21193;-55
2022/08/05 04:59:11;;;;;;;16.48;14.78;;;;;;;21.14;84.52;100498.55;1737826;81;21250;-56
2022/08/05 05:02:18;;;;;;;22.50;15.48;;;;;;;21.18;84.37;100494.21;1762397;81;21272;-59
2022/08/05 05:05:26;;;;;;;20.82;14.70;;;;;;;21.27;84.50;100496.92;1763797;81;21343;-59
2022/08/05 05:08:35;;;;;;;17.02;15.23;;;;;;;21.42;84.58;100492.55;1760370;79;21394;-56
2022/08/05 05:11:41;;;;;;;17.12;14.73;;;;;;;21.52;84.41;100490.01;1767373;80;21280;-55
2022/08/05 05:14:49;;;;;;;20.32;15.50;;;;;;;21.56;84.28;100490.38;1766789;79;21202;-55
2022/08/05 05:17:54;;;;;;;19.45;15.88;;;;;;;21.62;84.28;100494.95;1782395;80;21725;-55
2022/08/05 05:21:00;;;;;;;16.75;14.95;;;;;;;21.62;84.12;100495.81;1785000;80;21192;-54
2022/08/05 05:24:07;;;;;;;23.90;14.93;;;;;;;21.69;84.16;100502.09;1693509;84;21775;-53
2022/08/05 05:27:14;;;;;;;15.70;14.10;;;;;;;21.73;84.08;100494.95;1694530;83;21201;-54
2022/08/05 05:30:17;;;;;;;20.57;15.08;;;;;;;21.79;84.09;100503.75;1741232;81;21189;-54
2022/08/05 05:33:14;;;;;;;23.60;16.30;;;;;;;21.84;84.10;100500.22;1738939;80;21271;-53
2022/08/05 05:36:02;;;;;;;25.72;17.02;;;;;;;21.88;84.11;100499.47;1754574;81;21196;-54
2022/08/05 05:38:58;;;;;;;21.02;16.70;;;;;;;21.96;84.25;100495.47;1762970;80;21319;-54
2022/08/05 05:41:47;;;;;;;23.35;17.10;;;;;;;22.06;84.23;100507.67;1786845;79;21346;-54
2022/08/05 05:44:54;;;;;;;25.50;19.82;;;;;;;22.18;84.23;100504.85;1776298;80;21801;-55
2022/08/05 05:48:07;;;;;;;22.95;20.43;;;;;;;22.32;84.25;100499.81;1769484;80;21204;-55
2022/08/05 05:51:14;;;;;;;28.17;22.13;;;;;;;22.46;84.29;100503.98;1785255;80;21216;-55
2022/08/05 05:54:20;;;;;;;25.12;22.50;;;;;;;22.61;84.27;100505.14;1774885;79;22209;-53
2022/08/05 05:57:45;;;;;;;23.60;21.10;;;;;;;22.73;83.98;100505.94;1768073;79;21335;-55
2022/08/05 06:00:54;;;;;;;24.50;21.70;;;;;;;22.86;83.97;100502.83;1778331;79;21209;-55
2022/08/05 06:04:01;;;;;;;26.25;23.45;;;;;;;23.16;84.18;100516.45;1765680;80;21222;-53
2022/08/05 06:07:09;;;;;;;26.73;23.12;;;;;;;23.32;83.90;100514.22;1784619;78;21374;-54
2022/08/05 06:10:18;;;;;;;24.77;21.55;;;;;;;23.43;83.70;100507.15;1760551;79;21737;-53
2022/08/05 06:13:28;;;;;;;26.82;21.95;;;;;;;23.61;83.70;100504.59;1786798;78;21963;-53
2022/08/05 06:16:35;;;;;;;25.95;21.93;;;;;;;23.78;83.59;100504.01;1776096;78;21223;-54
2022/08/05 06:19:43;;;;;;;26.50;22.42;;;;;;;23.88;83.35;100500.50;1761316;80;21243;-53
2022/08/05 06:22:51;;;;;;;24.92;21.85;;;;;;;24.01;83.36;100492.59;1787082;79;21354;-55
2022/08/05 06:25:58;;;;;;;23.83;21.25;;;;;;;24.06;83.19;100501.59;1746525;81;21662;-54
2022/08/05 06:29:06;;;;;;;24.40;21.65;;;;;;;24.08;83.18;100503.03;1750144;82;21212;-54
2022/08/05 06:32:13;;;;;;;24.77;22.17;;;;;;;24.07;83.21;100503.30;1749174;81;21824;-54
2022/08/05 06:35:22;;;;;;;26.93;22.73;;;;;;;24.00;83.02;100507.69;1747227;81;21325;-54
2022/08/05 06:38:35;;;;;;;25.52;22.48;;;;;;;24.00;83.22;100511.03;1802247;79;21293;-55
2022/08/05 06:42:20;;;;;;;29.50;23.05;;;;;;;24.09;83.58;100502.46;1734942;81;21437;-54
2022/08/05 06:46:04;;;;;;;24.95;21.40;;;;;;;24.28;83.68;100504.67;1730485;81;21182;-58
2022/08/05 06:49:11;;;;;;;24.37;21.77;;;;;;;24.39;83.72;100506.47;1748124;81;21575;-53
2022/08/05 06:52:19;;;;;;;24.72;21.77;;;;;;;24.45;83.61;100508.22;1767701;80;21244;-53
2022/08/05 06:55:39;;;;;;;23.75;21.27;;;;;;;24.52;83.62;100510.27;1761240;80;21831;-54
2022/08/05 06:58:49;;;;;;;24.27;21.52;;;;;;;24.63;83.81;100514.86;1757349;81;21337;-53
2022/08/05 07:02:01;;;;;;;24.52;21.87;;;;;;;24.83;84.05;100520.68;1750380;80;21308;-55
2022/08/05 07:05:26;;;;;;;27.25;22.50;;;;;;;25.01;84.07;100520.30;1757443;79;21383;-54
2022/08/05 07:08:49;;;;;;;24.27;21.35;;;;;;;25.23;83.98;100529.17;1727692;81;21201;-54
2022/08/05 07:12:03;;;;;;;25.23;22.45;;;;;;;25.34;83.83;100534.60;1736766;82;21271;-54
2022/08/05 07:18:39;;;;;;;25.02;22.35;;;;;;;25.42;83.24;100527.67;1777170;79;21247;-54
2022/08/05 07:21:48;;;;;;;23.67;21.05;;;;;;;25.27;82.93;100527.52;1750817;80;21265;-54
2022/08/05 07:24:59;;;;;;;24.65;22.05;;;;;;;25.24;83.09;100528.05;1759995;80;21256;-54
2022/08/05 07:28:09;;;;;;;23.85;21.35;;;;;;;25.24;83.15;100530.86;1791420;79;21344;-55
2022/08/05 07:31:16;;;;;;;25.70;23.00;;;;;;;25.27;83.31;100531.17;1785011;80;21222;-54
2022/08/05 07:34:23;;;;;;;26.50;23.27;;;;;;;25.31;83.29;100521.67;1776197;79;21209;-54
2022/08/05 07:37:29;;;;;;;24.43;21.50;;;;;;;25.28;83.26;100524.98;1747569;81;21259;-55
2022/08/05 07:40:37;;;;;;;23.85;21.45;;;;;;;25.33;83.51;100527.83;1756415;81;21707;-54
2022/08/05 07:43:45;;;;;;;23.83;20.70;;;;;;;25.39;83.62;100529.04;1760775;81;21177;-54
2022/08/05 07:46:52;;;;;;;23.50;21.12;;;;;;;25.47;83.71;100535.55;1767214;80;21279;-54
2022/08/05 07:49:59;;;;;;;25.25;21.70;;;;;;;25.49;83.57;100538.08;1755355;81;21825;-55
2022/08/05 07:53:05;;;;;;;23.35;20.90;;;;;;;25.43;83.26;100539.17;1764247;81;21205;-53
2022/08/05 07:56:12;;;;;;;22.65;20.32;;;;;;;25.34;83.17;100543.02;1752393;81;21201;-55
2022/08/05 07:59:21;;;;;;;22.93;20.52;;;;;;;25.27;83.18;100539.58;1755888;81;21197;-54
2022/08/05 08:02:34;;;;;;;22.65;20.30;;;;;;;25.30;83.39;100547.99;1768226;80;21351;-54
2022/08/05 08:05:45;;;;;;;23.22;20.75;;;;;;;25.35;83.60;100540.52;1745388;81;21463;-53
2022/08/05 08:08:48;;;;;;;24.35;20.60;;;;;;;25.42;83.59;100541.11;1768787;79;21594;-54
2022/08/05 08:11:54;;;;;;;23.12;20.50;;;;;;;25.41;83.32;100543.64;1756304;81;21201;-55
2022/08/05 08:15:05;;;;;;;21.90;19.77;;;;;;;25.41;83.48;100540.84;1756787;81;21177;-54
2022/08/05 08:18:16;;;;;;;23.42;21.05;;;;;;;25.44;83.41;100547.85;1757325;79;21788;-54
2022/08/05 08:21:25;;;;;;;23.20;20.68;;;;;;;25.43;83.59;100543.38;1767529;81;21436;-54
2022/08/05 08:24:40;;;;;;;22.80;20.40;;;;;;;25.49;83.66;100540.88;1806057;79;21200;-54
2022/08/05 08:27:50;;;;;;;22.50;19.05;;;;;;;25.59;83.87;100542.37;1767150;81;21774;-54
2022/08/05 08:31:01;;;;;;;20.97;18.80;;;;;;;25.73;84.10;100543.58;1806100;79;21267;-55
2022/08/05 08:34:12;;;;;;;21.23;18.85;;;;;;;25.78;83.97;100547.82;1765806;81;21300;-54
2022/08/05 08:37:22;;;;;;;20.97;18.05;;;;;;;25.83;83.96;100542.25;1778265;80;21355;-55
2022/08/05 08:40:30;;;;;;;21.57;19.23;;;;;;;25.95;84.17;100545.67;1776777;79;21209;-55
2022/08/05 08:43:35;;;;;;;20.82;18.62;;;;;;;26.05;84.19;100545.77;1777523;79;21765;-55
2022/08/05 08:46:48;;;;;;;23.83;19.65;;;;;;;26.17;84.12;100542.16;1758181;80;21216;-54
2022/08/05 08:50:05;;;;;;;19.75;17.07;;;;;;;26.25;83.99;100537.42;1798250;78;21325;-54
2022/08/05 08:53:15;;;;;;;20.88;18.60;;;;;;;26.38;84.09;100543.94;1723139;82;21205;-53
2022/08/05 08:56:25;;;;;;;23.20;17.62;;;;;;;26.43;83.79;100547.59;1783828;80;21202;-56
2022/08/05 08:59:56;;;;;;;21.57;18.40;;;;;;;26.58;83.99;100551.02;1787439;79;21284;-55
2022/08/05 09:03:05;;;;;;;22.15;17.80;;;;;;;26.77;84.05;100548.55;1766535;79;21212;-55
2022/08/05 09:06:17;;;;;;;20.08;18.07;;;;;;;26.97;83.95;100545.80;1765721;80;21195;-54
2022/08/05 09:09:26;;;;;;;19.95;17.65;;;;;;;27.13;83.74;100547.50;1765399;80;21193;-54
2022/08/05 09:12:34;;;;;;;19.92;16.70;;;;;;;27.21;83.22;100542.14;1736924;81;21272;-55
2022/08/05 09:15:40;;;;;;;19.23;16.85;;;;;;;27.31;83.18;100544.14;1738022;81;21726;-55
2022/08/05 09:18:47;;;;;;;17.40;15.70;;;;;;;27.56;83.26;100542.16;1736953;81;21213;-55
2022/08/05 09:21:55;;;;;;;17.87;16.07;;;;;;;27.77;83.11;100532.56;1733732;82;21470;-55
2022/08/05 09:25:09;;;;;;;17.60;15.75;;;;;;;27.81;82.42;100533.66;1694851;84;21374;-56
2022/08/05 09:28:26;;;;;;;18.27;16.35;;;;;;;27.62;81.74;100537.38;1740879;82;21216;-55
2022/08/05 09:31:31;;;;;;;20.40;16.32;;;;;;;27.51;81.72;100539.34;1750342;81;21330;-55
2022/08/05 09:35:02;;;;;;;17.87;16.05;;;;;;;27.60;82.03;100534.86;1755778;81;21200;-56
2022/08/05 09:38:16;;;;;;;23.00;16.37;;;;;;;27.65;81.90;100524.16;1750462;80;21275;-56
2022/08/05 09:41:32;;;;;;;18.75;15.25;;;;;;;27.70;81.73;100523.56;1718020;82;21259;-55
2022/08/05 09:44:56;;;;;;;18.73;16.50;;;;;;;27.79;81.74;100524.69;1769239;81;21279;-55
2022/08/05 09:48:04;;;;;;;18.52;16.10;;;;;;;27.90;81.75;100522.70;1776612;79;21239;-54
2022/08/05 09:51:14;;;;;;;15.65;14.15;;;;;;;28.02;81.51;100518.17;1808195;79;21176;-57
2022/08/05 09:54:22;;;;;;;17.42;14.78;;;;;;;28.10;81.42;100521.22;1796160;79;21223;-56
2022/08/05 09:57:44;;;;;;;16.80;14.75;;;;;;;28.26;81.36;100505.95;1775636;79;21533;-55
2022/08/05 10:01:09;;;;;;;16.85;14.25;;;;;;;28.24;80.92;100509.61;1787324;79;21189;-56
2022/08/05 10:04:25;;;;;;;20.32;15.35;;;;;;;28.19;80.85;100504.58;1767279;81;21231;-56
2022/08/05 10:07:52;;;;;;;16.77;13.60;;;;;;;28.22;80.84;100502.59;1749841;82;21637;-57
2022/08/05 10:11:03;;;;;;;18.37;14.75;;;;;;;28.37;81.12;100502.53;1767906;81;21176;-56
2022/08/05 10:14:37;;;;;;;16.90;15.18;;;;;;;28.48;81.02;100502.78;1763394;80;21718;-56
2022/08/05 10:17:44;;;;;;;16.35;14.60;;;;;;;28.68;81.16;100492.78;1753772;80;21828;-56
2022/08/05 10:20:56;;;;;;;16.48;13.60;;;;;;;28.87;80.91;100496.59;1754990;80;21762;-57
2022/08/05 10:24:06;;;;;;;17.32;13.93;;;;;;;29.01;80.65;100491.97;1780412;79;21200;-57
2022/08/05 10:27:13;;;;;;;17.45;14.28;;;;;;;29.15;80.43;100501.47;1773366;79;21395;-56
2022/08/05 10:30:24;;;;;;;15.68;14.03;;;;;;;29.16;80.12;100491.30;1798407;79;21782;-56
2022/08/05 10:33:36;;;;;;;19.73;14.70;;;;;;;29.28;80.22;100487.25;1786955;79;21193;-57
2022/08/05 10:36:47;;;;;;;16.07;13.32;;;;;;;29.34;79.84;100485.50;1785932;79;22036;-56
2022/08/05 10:39:53;;;;;;;14.38;12.88;;;;;;;29.49;79.82;100495.80;1751718;81;21327;-57
2022/08/05 10:43:02;;;;;;;15.08;13.22;;;;;;;29.32;79.20;100494.81;1749143;80;21826;-56
2022/08/05 10:46:14;;;;;;;15.50;13.43;;;;;;;29.32;79.20;100494.81;1735366;82;21731;-57
2022/08/05 10:49:23;;;;;;;17.87;13.85;;;;;;;29.36;79.23;100495.92;1746539;81;21614;-52
2022/08/05 10:52:59;;;;;;;15.23;13.62;;;;;;;29.44;78.93;100494.44;1810038;79;21222;-57
2022/08/05 10:56:16;;;;;;;19.95;14.18;;;;;;;29.42;78.94;100488.23;1782997;79;21347;-55
2022/08/05 10:59:28;;;;;;;15.78;13.28;;;;;;;29.48;78.80;100484.25;1741034;82;21240;-58
2022/08/05 11:02:37;;;;;;;15.70;14.05;;;;;;;29.32;78.25;100480.72;1811123;79;21779;-57
2022/08/05 11:05:51;;;;;;;16.23;14.60;;;;;;;29.21;78.51;100479.98;1774795;80;21849;-57
2022/08/05 11:09:27;;;;;;;17.17;14.05;;;;;;;29.50;78.39;100495.50;1767856;80;21347;-57
2022/08/05 11:12:49;;;;;;;17.17;14.40;;;;;;;29.50;78.39;100495.50;1766203;80;21215;-58
2022/08/05 11:16:00;;;;;;;15.93;14.30;;;;;;;29.50;78.30;100502.55;1810621;78;21220;-57
2022/08/05 11:19:33;;;;;;;16.35;14.63;;;;;;;29.32;77.78;100489.77;1778102;79;21248;-56
2022/08/05 11:22:56;;;;;;;15.23;12.98;;;;;;;29.30;78.05;100487.80;1755536;80;21180;-57
2022/08/05 11:26:21;;;;;;;15.93;14.30;;;;;;;29.46;78.29;100490.20;1760236;81;21558;-58
2022/08/05 11:29:46;;;;;;;15.65;13.75;;;;;;;29.42;77.69;100479.22;1738646;81;21293;-59
2022/08/05 11:32:55;;;;;;;17.00;13.40;;;;;;;29.42;77.69;100479.22;1765380;81;21239;-58
2022/08/05 11:36:13;;;;;;;17.73;13.18;;;;;;;29.51;77.95;100477.42;1755463;79;21384;-58
2022/08/05 11:39:44;;;;;;;14.18;12.68;;;;;;;29.64;77.97;100471.11;1768167;80;21721;-57
2022/08/05 11:42:55;;;;;;;15.35;12.18;;;;;;;29.71;77.81;100466.52;1769238;80;21232;-57
2022/08/05 11:46:03;;;;;;;30.17;12.78;;;;;;;29.83;77.84;100464.96;1777940;80;21185;-56
2022/08/05 11:49:20;;;;;;;14.60;13.20;;;;;;;29.71;76.96;100460.31;1767875;80;21683;-56
2022/08/05 11:52:33;;;;;;;16.70;12.45;;;;;;;29.57;76.87;100452.83;1768662;81;21726;-56
2022/08/05 11:55:41;;;;;;;14.63;13.13;;;;;;;29.62;77.17;100449.36;1748122;80;21544;-57
2022/08/05 11:58:52;;;;;;;15.50;13.68;;;;;;;29.77;77.30;100452.61;1725186;81;21301;-57
2022/08/05 12:02:12;;;;;;;16.55;13.45;;;;;;;29.76;76.99;100447.56;1777020;80;21723;-56
2022/08/05 12:05:23;;;;;;;14.93;12.88;;;;;;;29.77;76.78;100444.14;1790539;79;21792;-57
2022/08/05 12:08:35;;;;;;;13.38;12.07;;;;;;;29.81;76.64;100451.70;1790707;79;21381;-57
2022/08/05 12:11:48;;;;;;;15.32;11.85;;;;;;;29.81;76.28;100448.88;1746640;81;21323;-58
2022/08/05 12:14:56;;;;;;;15.13;12.13;;;;;;;29.77;75.73;100460.52;1707200;84;21189;-58
2022/08/05 12:18:01;;;;;;;19.95;12.90;;;;;;;29.63;75.47;100455.30;1724707;81;21220;-58
2022/08/05 12:21:22;;;;;;;19.57;11.78;;;;;;;29.59;75.60;100448.55;1771192;79;21215;-57
2022/08/05 12:24:32;;;;;;;13.00;11.60;;;;;;;29.60;75.48;100465.77;1765099;79;21243;-56
2022/08/05 12:27:48;;;;;;;15.15;11.68;;;;;;;29.55;75.29;100465.83;1744794;81;21357;-56
2022/08/05 12:30:59;;;;;;;12.58;11.38;;;;;;;29.55;75.22;100465.83;1731899;80;21186;-56
2022/08/05 12:34:13;;;;;;;13.85;11.43;;;;;;;29.60;75.25;100469.16;1769865;79;21198;-57
2022/08/05 12:37:20;;;;;;;12.82;10.35;;;;;;;29.67;75.21;100458.40;1737726;82;21726;-57
2022/08/05 12:40:31;;;;;;;14.30;10.78;;;;;;;29.75;75.16;100464.20;1726768;82;21193;-55
2022/08/05 12:44:03;;;;;;;11.45;10.30;;;;;;;29.85;75.04;100475.39;1741851;81;21368;-56
2022/08/05 12:47:14;;;;;;;11.78;10.43;;;;;;;29.87;74.70;100466.05;1767563;80;21244;-57
2022/08/05 12:50:23;;;;;;;12.63;9.68;;;;;;;29.85;74.35;100475.39;1767527;80;21205;-56
2022/08/05 12:53:30;;;;;;;16.42;10.35;;;;;;;29.76;74.11;100473.53;1761783;81;21212;-57
2022/08/05 12:56:56;;;;;;;11.53;9.30;;;;;;;29.73;74.26;100472.13;1757726;81;21770;-57
2022/08/05 13:00:09;;;;;;;11.03;8.90;;;;;;;29.79;74.08;100468.13;1762092;81;21205;-55
2022/08/05 13:03:18;;;;;;;10.63;9.53;;;;;;;29.72;73.57;100485.98;1741749;82;21252;-56
2022/08/05 13:06:28;;;;;;;9.95;8.93;;;;;;;29.72;73.57;100485.98;1741709;81;21215;-53
2022/08/05 13:09:35;;;;;;;12.05;9.30;;;;;;;29.53;73.23;100485.02;1740769;82;21212;-55
2022/08/05 13:12:50;;;;;;;17.27;10.13;;;;;;;29.50;73.43;100488.45;1784877;79;21710;-55
2022/08/05 13:15:58;;;;;;;11.88;10.03;;;;;;;29.50;73.43;100488.45;1768862;80;21332;-56
2022/08/05 13:19:13;;;;;;;9.48;8.53;;;;;;;29.51;73.09;100487.89;1749930;79;21181;-54
2022/08/05 13:22:24;;;;;;;11.20;8.65;;;;;;;29.51;72.88;100487.89;1762225;81;21193;-54
2022/08/05 13:25:29;;;;;;;10.88;8.55;;;;;;;29.43;72.70;100487.13;1713409;80;21285;-53
2022/08/05 13:28:38;;;;;;;8.98;7.83;;;;;;;29.42;72.69;100490.50;1737101;82;21219;-55
2022/08/05 13:31:47;;;;;;;8.63;7.75;;;;;;;29.45;72.65;100492.72;1745513;82;21247;-55
2022/08/05 13:34:58;;;;;;;12.25;7.15;;;;;;;29.49;72.32;100493.83;1684210;85;21195;-54
2022/08/05 13:38:13;;;;;;;10.78;6.87;;;;;;;29.49;72.32;100493.83;1648775;86;21393;-55
2022/08/05 13:41:21;;;;;;;9.55;6.22;;;;;;;29.52;72.32;100485.33;1692082;84;21202;-55
2022/08/05 13:44:35;;;;;;;9.58;6.05;;;;;;;29.55;72.18;100481.34;1735732;81;21238;-54
2022/08/05 13:47:43;;;;;;;8.58;5.50;;;;;;;29.55;71.96;100474.29;1729191;83;21300;-56
2022/08/05 13:50:54;;;;;;;6.83;5.65;;;;;;;29.55;71.51;100474.84;1729880;83;21233;-55
2022/08/05 13:54:01;;;;;;;7.95;6.15;;;;;;;29.53;71.34;100466.68;1748740;80;21185;-55
2022/08/05 13:57:13;;;;;;;8.35;5.85;;;;;;;29.49;71.15;100472.67;1768591;80;21546;-54
2022/08/05 14:00:19;;;;;;;8.03;5.85;;;;;;;29.47;70.84;100479.17;1770708;80;21355;-55
2022/08/05 14:03:27;;;;;;;7.47;6.45;;;;;;;29.49;71.00;100480.28;1756131;80;21205;-55
2022/08/05 14:06:38;;;;;;;9.35;6.30;;;;;;;29.50;70.86;100481.39;1775882;79;21216;-52
2022/08/05 14:09:46;;;;;;;13.40;6.53;;;;;;;29.49;70.63;100485.36;1769436;80;21185;-54
2022/08/05 14:12:54;;;;;;;9.53;6.50;;;;;;;29.53;70.52;100483.61;1764581;80;21582;-54
2022/08/05 14:16:00;;;;;;;9.48;6.37;;;;;;;29.47;70.01;100478.31;1778531;80;21244;-54
2022/08/05 14:19:08;;;;;;;13.65;6.20;;;;;;;29.47;70.01;100478.31;1777421;80;21205;-54
2022/08/05 14:22:16;;;;;;;8.13;6.85;;;;;;;29.40;69.90;100475.84;1777221;80;21188;-53
2022/08/05 14:25:23;;;;;;;8.60;6.78;;;;;;;29.39;69.90;100476.14;1781081;79;21188;-54
2022/08/05 14:28:29;;;;;;;12.65;7.12;;;;;;;29.41;69.86;100471.91;1777918;79;21719;-53
2022/08/05 14:31:38;;;;;;;9.40;6.90;;;;;;;29.37;69.68;100465.75;1737724;81;21199;-52